createdAt,value
2022-12-11T00:00:05.697Z,95.59
2022-12-11T00:02:32.317Z,95.52
2022-12-11T00:04:59.072Z,95.65
2022-12-11T00:07:25.756Z,96.60
2022-12-11T00:09:52.346Z,96.05
2022-12-11T00:12:20.373Z,97.70
2022-12-11T00:14:46.951Z,97.77
2022-12-11T00:17:13.585Z,97.78
2022-12-11T00:19:40.144Z,97.17
2022-12-11T00:22:06.871Z,97.44
2022-12-11T00:24:33.626Z,97.92
2022-12-11T00:27:00.201Z,97.74
2022-12-11T00:29:28.166Z,98.19
2022-12-11T00:31:54.844Z,97.87
2022-12-11T00:34:21.456Z,97.83
2022-12-11T00:36:48.016Z,97.83
2022-12-11T00:39:14.611Z,97.36
2022-12-11T00:41:41.181Z,98.06
2022-12-11T00:44:07.692Z,98.80
2022-12-11T00:46:35.821Z,99.44
2022-12-11T00:49:02.378Z,99.74
2022-12-11T00:51:28.994Z,99.70
2022-12-11T00:53:55.584Z,100.00
2022-12-11T00:56:23.425Z,100.00
2022-12-11T00:58:50.324Z,100.00
2022-12-11T01:01:19.479Z,100.00
2022-12-11T01:03:48.159Z,100.00
2022-12-11T01:06:16.302Z,100.00
2022-12-11T01:08:43.178Z,99.92
2022-12-11T01:11:12.258Z,99.71
2022-12-11T01:13:39.611Z,99.77
2022-12-11T01:16:08.106Z,99.83
2022-12-11T01:18:34.641Z,100.00
2022-12-11T01:21:07.724Z,100.00
2022-12-11T01:23:34.652Z,100.00
2022-12-11T01:26:05.753Z,100.00
2022-12-11T01:28:32.280Z,100.00
2022-12-11T01:30:58.985Z,100.00
2022-12-11T01:33:26.516Z,100.00
2022-12-11T01:35:53.266Z,100.00
2022-12-11T01:38:21.254Z,100.00
2022-12-11T01:40:54.093Z,100.00
2022-12-11T01:43:20.724Z,100.00
2022-12-11T01:45:48.750Z,100.00
2022-12-11T01:48:20.366Z,99.52
2022-12-11T01:50:50.612Z,98.75
2022-12-11T01:53:22.684Z,98.81
2022-12-11T01:55:51.421Z,98.70
2022-12-11T01:58:20.114Z,98.85
2022-12-11T02:00:46.847Z,98.75
2022-12-11T02:03:14.100Z,98.73
2022-12-11T02:05:43.970Z,98.55
2022-12-11T02:08:11.160Z,98.39
2022-12-11T02:10:48.883Z,99.00
2022-12-11T02:13:21.126Z,98.72
2022-12-11T02:15:55.478Z,99.14
2022-12-11T02:18:31.064Z,98.77
2022-12-11T02:21:03.234Z,98.77
2022-12-11T02:24:00.485Z,98.60
2022-12-11T02:27:11.239Z,99.37
2022-12-11T02:29:49.008Z,99.57
2022-12-11T02:32:21.247Z,99.86
2022-12-11T02:34:54.778Z,99.45
2022-12-11T02:37:24.551Z,99.54
2022-12-11T02:39:54.442Z,100.00
2022-12-11T02:42:21.962Z,99.54
2022-12-11T02:44:52.383Z,98.84
2022-12-11T02:47:21.302Z,99.06
2022-12-11T02:49:50.098Z,98.66
2022-12-11T02:52:20.271Z,97.69
2022-12-11T02:54:48.809Z,97.76
2022-12-11T02:57:19.147Z,97.49
2022-12-11T02:59:46.644Z,97.83
2022-12-11T03:02:17.018Z,98.47
2022-12-11T03:04:44.543Z,98.87
2022-12-11T03:07:15.368Z,99.38
2022-12-11T03:09:43.800Z,99.09
2022-12-11T03:12:13.197Z,98.86
2022-12-11T03:14:42.234Z,99.03
2022-12-11T03:17:15.215Z,99.01
2022-12-11T03:19:50.009Z,98.60
2022-12-11T03:22:20.425Z,98.74
2022-12-11T03:24:52.953Z,98.59
2022-12-11T03:27:26.944Z,98.16
2022-12-11T03:29:59.020Z,97.64
2022-12-11T03:32:31.269Z,98.21
2022-12-11T03:35:03.460Z,99.36
2022-12-11T03:37:34.524Z,99.38
2022-12-11T03:40:07.421Z,98.76
2022-12-11T03:42:34.743Z,98.81
2022-12-11T03:45:03.708Z,98.43
2022-12-11T03:47:33.564Z,97.72
2022-12-11T03:50:03.801Z,97.18
2022-12-11T03:52:31.651Z,97.77
2022-12-11T03:55:03.901Z,97.39
2022-12-11T03:57:35.547Z,97.36
2022-12-11T04:00:02.963Z,96.70
2022-12-11T04:02:31.032Z,96.15
2022-12-11T04:04:57.582Z,96.23
2022-12-11T04:07:24.324Z,95.96
2022-12-11T04:09:50.900Z,95.83
2022-12-11T04:12:17.461Z,95.19
2022-12-11T04:14:44.149Z,94.60
2022-12-11T04:17:10.741Z,94.51
2022-12-11T04:19:38.603Z,94.51
2022-12-11T04:22:05.261Z,95.21
2022-12-11T04:24:31.840Z,96.04
2022-12-11T04:26:58.409Z,96.22
2022-12-11T04:29:25.083Z,96.31
2022-12-11T04:31:51.615Z,96.29
2022-12-11T04:34:18.106Z,96.98
2022-12-11T04:36:46.184Z,97.48
2022-12-11T04:39:12.857Z,97.12
2022-12-11T04:41:39.363Z,96.01
2022-12-11T04:44:05.856Z,96.50
2022-12-11T04:46:32.490Z,96.35
2022-12-11T04:48:59.160Z,96.21
2022-12-11T04:51:25.858Z,96.58
2022-12-11T04:53:53.705Z,96.93
2022-12-11T04:56:21.296Z,96.38
2022-12-11T04:58:48.343Z,96.99
2022-12-11T05:01:17.090Z,96.30
2022-12-11T05:03:44.074Z,95.83
2022-12-11T05:06:12.024Z,95.98
2022-12-11T05:08:40.704Z,96.33
2022-12-11T05:11:10.949Z,96.31
2022-12-11T05:13:37.625Z,96.25
2022-12-11T05:16:05.036Z,96.68
2022-12-11T05:18:31.882Z,96.08
2022-12-11T05:21:00.014Z,96.10
2022-12-11T05:23:27.381Z,95.84
2022-12-11T05:25:54.010Z,95.94
2022-12-11T05:28:22.940Z,96.30
2022-12-11T05:30:49.446Z,97.02
2022-12-11T05:33:15.945Z,97.64
2022-12-11T05:35:47.469Z,97.35
2022-12-11T05:38:14.117Z,96.09
2022-12-11T05:40:40.703Z,96.95
2022-12-11T05:43:07.286Z,96.43
2022-12-11T05:45:35.370Z,95.60
2022-12-11T05:48:01.961Z,95.29
2022-12-11T05:50:28.626Z,95.33
2022-12-11T05:52:55.182Z,95.40
2022-12-11T05:55:21.879Z,95.96
2022-12-11T05:57:49.036Z,96.22
2022-12-11T06:00:15.604Z,95.89
2022-12-11T06:02:43.619Z,96.62
2022-12-11T06:05:10.691Z,96.49
2022-12-11T06:07:37.519Z,95.95
2022-12-11T06:10:04.631Z,96.59
2022-12-11T06:12:31.261Z,96.88
2022-12-11T06:14:57.761Z,97.50
2022-12-11T06:17:24.501Z,96.52
2022-12-11T06:19:52.556Z,97.06
2022-12-11T06:22:19.308Z,97.56
2022-12-11T06:24:46.027Z,97.19
2022-12-11T06:27:12.580Z,97.09
2022-12-11T06:29:39.194Z,97.67
2022-12-11T06:32:05.763Z,98.07
2022-12-11T06:34:32.338Z,98.24
2022-12-11T06:37:00.236Z,98.02
2022-12-11T06:39:26.954Z,97.47
2022-12-11T06:41:53.499Z,97.57
2022-12-11T06:44:20.145Z,98.00
2022-12-11T06:46:46.821Z,98.06
2022-12-11T06:49:13.355Z,98.21
2022-12-11T06:51:39.978Z,98.29
2022-12-11T06:54:07.922Z,98.67
2022-12-11T06:56:35.251Z,98.35
2022-12-11T06:59:07.109Z,99.06
2022-12-11T07:01:34.300Z,98.40
2022-12-11T07:04:00.910Z,98.81
2022-12-11T07:06:28.298Z,98.44
2022-12-11T07:08:55.566Z,98.68
2022-12-11T07:11:23.666Z,98.44
2022-12-11T07:13:50.926Z,98.94
2022-12-11T07:16:17.835Z,98.60
2022-12-11T07:18:47.665Z,98.77
2022-12-11T07:21:14.452Z,99.00
2022-12-11T07:23:41.677Z,98.92
2022-12-11T07:26:10.668Z,98.83
2022-12-11T07:28:39.146Z,98.69
2022-12-11T07:31:06.726Z,98.98
2022-12-11T07:33:33.365Z,98.81
2022-12-11T07:36:01.443Z,98.83
2022-12-11T07:38:28.119Z,99.08
2022-12-11T07:40:54.686Z,99.07
2022-12-11T07:43:21.297Z,98.71
2022-12-11T07:45:49.319Z,98.45
2022-12-11T07:48:15.969Z,98.73
2022-12-11T07:50:42.473Z,98.64
2022-12-11T07:53:09.144Z,98.67
2022-12-11T07:55:35.669Z,98.18
2022-12-11T07:58:02.429Z,98.71
2022-12-11T08:00:29.070Z,98.23
2022-12-11T08:02:57.011Z,98.22
2022-12-11T08:05:23.731Z,98.15
2022-12-11T08:07:50.260Z,97.82
2022-12-11T08:10:17.256Z,97.82
2022-12-11T08:12:43.766Z,97.93
2022-12-11T08:15:11.301Z,97.96
2022-12-11T08:17:40.145Z,97.39
2022-12-11T08:20:09.747Z,96.98
2022-12-11T08:22:36.325Z,97.42
2022-12-11T08:25:03.050Z,96.79
2022-12-11T08:27:29.645Z,96.78
2022-12-11T08:29:56.193Z,96.30
2022-12-11T08:32:22.867Z,96.40
2022-12-11T08:34:51.321Z,96.75
2022-12-11T08:37:19.291Z,96.74
2022-12-11T08:39:45.846Z,95.70
2022-12-11T08:42:12.427Z,95.82
2022-12-11T08:44:38.968Z,94.99
2022-12-11T08:47:05.492Z,95.00
2022-12-11T08:49:34.646Z,94.68
2022-12-11T08:52:02.502Z,94.19
2022-12-11T08:54:30.506Z,94.48
2022-12-11T08:56:58.322Z,94.94
2022-12-11T08:59:25.310Z,94.82
2022-12-11T09:01:51.986Z,94.52
2022-12-11T09:04:18.527Z,94.98
2022-12-11T09:06:45.042Z,95.12
2022-12-11T09:09:11.598Z,94.82
2022-12-11T09:11:39.584Z,95.26
2022-12-11T09:14:07.876Z,95.58
2022-12-11T09:16:36.412Z,95.60
2022-12-11T09:19:03.942Z,95.05
2022-12-11T09:21:30.922Z,95.56
2022-12-11T09:23:59.381Z,95.56
2022-12-11T09:26:27.125Z,95.68
2022-12-11T09:28:55.259Z,95.25
2022-12-11T09:31:24.738Z,95.64
2022-12-11T09:33:54.601Z,95.25
2022-12-11T09:36:21.306Z,95.93
2022-12-11T09:38:47.880Z,96.31
2022-12-11T09:41:32.677Z,96.49
2022-12-11T09:44:06.612Z,96.86
2022-12-11T09:46:34.921Z,97.37
2022-12-11T09:49:03.227Z,97.39
2022-12-11T09:51:36.486Z,96.62
2022-12-11T09:54:04.718Z,96.53
2022-12-11T09:56:35.927Z,95.86
2022-12-11T09:59:18.467Z,95.69
2022-12-11T10:01:50.505Z,96.12
2022-12-11T10:04:40.320Z,96.02
2022-12-11T10:07:13.691Z,96.17
2022-12-11T10:09:48.245Z,96.20
2022-12-11T10:12:30.302Z,96.54
2022-12-11T10:15:19.551Z,96.66
2022-12-11T10:17:47.348Z,96.76
2022-12-11T10:20:20.393Z,96.50
2022-12-11T10:22:48.311Z,96.37
2022-12-11T10:25:21.426Z,96.42
2022-12-11T10:27:48.241Z,95.74
2022-12-11T10:30:18.675Z,94.66
2022-12-11T10:32:54.309Z,95.03
2022-12-11T10:35:31.312Z,94.59
2022-12-11T10:38:10.192Z,94.89
2022-12-11T10:40:38.496Z,94.96
2022-12-11T10:43:05.117Z,94.77
2022-12-11T10:45:33.067Z,95.08
2022-12-11T10:48:04.464Z,94.38
2022-12-11T10:50:31.245Z,94.76
2022-12-11T10:52:58.334Z,94.59
2022-12-11T10:55:28.266Z,94.21
2022-12-11T10:57:58.285Z,93.88
2022-12-11T11:00:36.210Z,93.38
2022-12-11T11:03:04.771Z,93.50
2022-12-11T11:05:33.707Z,93.25
2022-12-11T11:08:12.582Z,93.95
2022-12-11T11:10:50.430Z,94.34
2022-12-11T11:13:17.171Z,94.10
2022-12-11T11:15:45.427Z,95.08
2022-12-11T11:18:16.821Z,95.17
2022-12-11T11:20:47.857Z,96.16
2022-12-11T11:23:16.411Z,96.36
2022-12-11T11:25:51.386Z,96.99
2022-12-11T11:28:20.477Z,96.11
2022-12-11T11:30:58.793Z,96.58
2022-12-11T11:33:25.566Z,96.32
2022-12-11T11:35:54.171Z,97.18
2022-12-11T11:38:24.599Z,96.85
2022-12-11T11:41:00.746Z,97.34
2022-12-11T11:43:37.864Z,97.67
2022-12-11T11:46:12.113Z,97.84
2022-12-11T11:48:49.775Z,97.61
2022-12-11T11:51:23.260Z,97.45
2022-12-11T11:53:52.800Z,97.79
2022-12-11T11:56:22.611Z,98.34
2022-12-11T11:58:57.220Z,97.97
2022-12-11T12:01:26.328Z,97.69
2022-12-11T12:03:53.370Z,97.94
2022-12-11T12:06:28.966Z,97.93
2022-12-11T12:09:03.311Z,98.07
2022-12-11T12:11:37.810Z,98.25
2022-12-11T12:14:43.563Z,97.73
2022-12-11T12:17:13.067Z,97.82
2022-12-11T12:19:46.966Z,97.42
2022-12-11T12:22:26.608Z,97.35
2022-12-11T12:25:02.715Z,97.40
2022-12-11T12:27:52.993Z,97.36
2022-12-11T12:30:23.320Z,97.05
2022-12-11T12:33:06.121Z,96.99
2022-12-11T12:35:35.927Z,96.86
2022-12-11T12:38:10.897Z,97.04
2022-12-11T12:40:50.125Z,97.23
2022-12-11T12:43:33.769Z,97.84
2022-12-11T12:46:08.769Z,97.78
2022-12-11T12:48:36.719Z,97.42
2022-12-11T12:51:04.302Z,97.52
2022-12-11T12:53:34.886Z,97.78
2022-12-11T12:56:03.327Z,98.03
2022-12-11T12:58:41.564Z,97.72
2022-12-11T13:01:09.906Z,98.36
2022-12-11T13:03:50.593Z,98.68
2022-12-11T13:06:29.137Z,98.51
2022-12-11T13:08:56.089Z,98.77
2022-12-11T13:11:32.443Z,98.97
2022-12-11T13:14:03.560Z,98.63
2022-12-11T13:16:36.689Z,98.72
2022-12-11T13:19:17.319Z,98.70
2022-12-11T13:21:55.815Z,98.16
2022-12-11T13:24:26.957Z,97.92
2022-12-11T13:26:53.794Z,98.27
2022-12-11T13:29:35.155Z,97.75
2022-12-11T13:32:05.234Z,97.13
2022-12-11T13:34:35.607Z,97.39
2022-12-11T13:37:03.806Z,97.71
2022-12-11T13:39:32.074Z,97.86
2022-12-11T13:42:04.689Z,98.22
2022-12-11T13:44:34.289Z,98.66
2022-12-11T13:47:04.172Z,97.74
2022-12-11T13:49:36.995Z,97.98
2022-12-11T13:52:05.582Z,97.59
2022-12-11T13:54:34.601Z,97.99
2022-12-11T13:57:04.491Z,98.24
2022-12-11T13:59:35.786Z,98.03
2022-12-11T14:02:15.185Z,98.23
2022-12-11T14:04:43.566Z,98.30
2022-12-11T14:07:11.576Z,98.74
2022-12-11T14:09:43.551Z,98.67
2022-12-11T14:12:17.287Z,98.84
2022-12-11T14:14:47.092Z,98.88
2022-12-11T14:17:14.697Z,99.01
2022-12-11T14:19:46.672Z,98.70
2022-12-11T14:22:19.712Z,99.12
2022-12-11T14:24:50.927Z,99.37
2022-12-11T14:27:18.076Z,99.77
2022-12-11T14:29:44.824Z,99.62
2022-12-11T14:32:19.887Z,99.74
2022-12-11T14:34:49.639Z,99.91
2022-12-11T14:37:19.081Z,99.83
2022-12-11T14:39:50.581Z,99.61
2022-12-11T14:42:20.401Z,100.00
2022-12-11T14:44:51.285Z,99.49
2022-12-11T14:47:21.512Z,99.63
2022-12-11T14:49:53.892Z,100.00
2022-12-11T14:52:25.649Z,100.00
2022-12-11T14:54:56.672Z,100.00
2022-12-11T14:57:27.565Z,100.00
2022-12-11T14:59:54.911Z,100.00
2022-12-11T15:02:26.073Z,100.00
2022-12-11T15:05:06.241Z,100.00
2022-12-11T15:07:33.356Z,100.00
2022-12-11T15:09:59.930Z,100.00
2022-12-11T15:12:26.674Z,100.00
2022-12-11T15:14:55.557Z,100.00
2022-12-11T15:17:23.959Z,100.00
2022-12-11T15:19:53.615Z,100.00
2022-12-11T15:22:23.811Z,100.00
2022-12-11T15:24:52.447Z,100.00
2022-12-11T15:27:25.516Z,100.00
2022-12-11T15:29:52.357Z,100.00
2022-12-11T15:32:20.926Z,100.00
2022-12-11T15:34:50.186Z,100.00
2022-12-11T15:37:28.778Z,100.00
2022-12-11T15:39:57.085Z,100.00
2022-12-11T15:42:26.485Z,100.00
2022-12-11T15:44:53.687Z,100.00
2022-12-11T15:47:22.854Z,100.00
2022-12-11T15:49:49.492Z,100.00
2022-12-11T15:52:16.139Z,100.00
2022-12-11T15:54:44.028Z,100.00
2022-12-11T15:57:16.645Z,100.00
2022-12-11T15:59:44.737Z,100.00
2022-12-11T16:02:12.378Z,100.00
2022-12-11T16:04:39.055Z,100.00
2022-12-11T16:07:06.728Z,100.00
2022-12-11T16:09:33.295Z,100.00
2022-12-11T16:12:01.218Z,100.00
2022-12-11T16:14:27.740Z,100.00
2022-12-11T16:16:54.315Z,100.00
2022-12-11T16:19:20.922Z,100.00
2022-12-11T16:21:47.447Z,100.00
2022-12-11T16:24:13.997Z,100.00
2022-12-11T16:26:40.564Z,100.00
2022-12-11T16:29:08.430Z,100.00
2022-12-11T16:31:34.969Z,100.00
2022-12-11T16:34:01.483Z,100.00
2022-12-11T16:36:28.060Z,100.00
2022-12-11T16:38:54.646Z,100.00
2022-12-11T16:41:21.539Z,100.00
2022-12-11T16:43:48.223Z,100.00
2022-12-11T16:46:17.327Z,100.00
2022-12-11T16:48:44.613Z,100.00
2022-12-11T16:51:11.166Z,100.00
2022-12-11T16:53:37.805Z,100.00
2022-12-11T16:56:04.855Z,100.00
2022-12-11T16:58:31.381Z,100.00
2022-12-11T17:00:57.928Z,100.00
2022-12-11T17:03:25.829Z,100.00
2022-12-11T17:05:52.562Z,100.00
2022-12-11T17:08:19.129Z,100.00
2022-12-11T17:10:45.725Z,100.00
2022-12-11T17:13:12.719Z,100.00
2022-12-11T17:15:40.357Z,100.00
2022-12-11T17:18:07.165Z,100.00
2022-12-11T17:20:35.193Z,100.00
2022-12-11T17:23:01.858Z,100.00
2022-12-11T17:25:28.404Z,100.00
2022-12-11T17:27:55.452Z,100.00
2022-12-11T17:30:22.033Z,100.00
2022-12-11T17:32:48.893Z,100.00
2022-12-11T17:35:15.536Z,100.00
2022-12-11T17:37:43.447Z,100.00
2022-12-11T17:40:11.050Z,100.00
2022-12-11T17:42:37.612Z,100.00
2022-12-11T17:45:04.834Z,100.00
2022-12-11T17:47:31.672Z,100.00
2022-12-11T17:49:58.199Z,100.00
2022-12-11T17:52:27.344Z,100.00
2022-12-11T17:54:58.785Z,100.00
2022-12-11T17:57:25.370Z,100.00
2022-12-11T17:59:53.686Z,100.00
2022-12-11T18:02:20.260Z,100.00
2022-12-11T18:04:46.802Z,100.00
2022-12-11T18:07:13.730Z,100.00
2022-12-11T18:09:40.941Z,100.00
2022-12-11T18:12:10.244Z,100.00
2022-12-11T18:14:37.428Z,100.00
2022-12-11T18:17:04.100Z,100.00
2022-12-11T18:19:30.627Z,100.00
2022-12-11T18:21:57.695Z,100.00
2022-12-11T18:24:24.234Z,100.00
2022-12-11T18:26:50.766Z,100.00
2022-12-11T18:29:18.629Z,100.00
2022-12-11T18:31:45.214Z,100.00
2022-12-11T18:34:11.781Z,100.00
2022-12-11T18:36:38.630Z,100.00
2022-12-11T18:39:05.155Z,100.00
2022-12-11T18:41:31.684Z,100.00
2022-12-11T18:43:59.583Z,100.00
2022-12-11T18:46:27.565Z,100.00
2022-12-11T18:48:54.236Z,100.00
2022-12-11T18:51:22.170Z,100.00
2022-12-11T18:53:48.697Z,100.00
2022-12-11T18:56:17.318Z,100.00
2022-12-11T18:58:44.271Z,100.00
2022-12-11T19:01:15.533Z,100.00
2022-12-11T19:03:43.607Z,100.00
2022-12-11T19:06:12.621Z,100.00
2022-12-11T19:08:39.715Z,100.00
2022-12-11T19:11:07.326Z,100.00
2022-12-11T19:13:34.522Z,100.00
2022-12-11T19:16:01.815Z,100.00
2022-12-11T19:18:28.660Z,100.00
2022-12-11T19:21:06.460Z,100.00
2022-12-11T19:23:35.258Z,100.00
2022-12-11T19:26:01.827Z,100.00
2022-12-11T19:28:28.569Z,100.00
2022-12-11T19:30:55.106Z,100.00
2022-12-11T19:33:21.760Z,100.00
2022-12-11T19:35:48.339Z,100.00
2022-12-11T19:38:16.262Z,100.00
2022-12-11T19:40:43.755Z,100.00
2022-12-11T19:43:11.236Z,100.00
2022-12-11T19:45:37.955Z,100.00
2022-12-11T19:48:05.434Z,100.00
2022-12-11T19:50:32.097Z,100.00
2022-12-11T19:52:58.690Z,100.00
2022-12-11T19:55:26.663Z,100.00
2022-12-11T19:57:53.246Z,100.00
2022-12-11T20:00:19.916Z,100.00
2022-12-11T20:02:46.572Z,100.00
2022-12-11T20:05:13.432Z,100.00
2022-12-11T20:07:40.211Z,100.00
2022-12-11T20:10:07.540Z,100.00
2022-12-11T20:12:35.558Z,100.00
2022-12-11T20:15:03.437Z,100.00
2022-12-11T20:17:30.213Z,100.00
2022-12-11T20:19:57.006Z,100.00
2022-12-11T20:22:23.554Z,100.00
2022-12-11T20:24:50.127Z,100.00
2022-12-11T20:27:16.867Z,100.00
2022-12-11T20:29:44.783Z,100.00
2022-12-11T20:32:11.580Z,100.00
2022-12-11T20:34:38.385Z,100.00
2022-12-11T20:37:04.912Z,100.00
2022-12-11T20:39:31.479Z,100.00
2022-12-11T20:41:58.011Z,100.00
2022-12-11T20:44:24.564Z,100.00
2022-12-11T20:46:52.476Z,100.00
2022-12-11T20:49:19.088Z,100.00
2022-12-11T20:51:45.883Z,100.00
2022-12-11T20:54:12.469Z,100.00
2022-12-11T20:56:39.035Z,100.00
2022-12-11T20:59:05.874Z,100.00
2022-12-11T21:01:33.095Z,100.00
2022-12-11T21:04:01.146Z,100.00
2022-12-11T21:06:30.138Z,100.00
2022-12-11T21:08:57.258Z,100.00
2022-12-11T21:11:24.483Z,100.00
2022-12-11T21:13:51.655Z,100.00
2022-12-11T21:16:19.290Z,100.00
2022-12-11T21:18:45.868Z,100.00
2022-12-11T21:21:14.158Z,100.00
2022-12-11T21:23:41.009Z,100.00
2022-12-11T21:26:07.614Z,100.00
2022-12-11T21:28:35.808Z,100.00
2022-12-11T21:31:04.341Z,100.00
2022-12-11T21:33:31.347Z,100.00
2022-12-11T21:35:59.578Z,100.00
2022-12-11T21:38:28.710Z,100.00
2022-12-11T21:40:56.363Z,100.00
2022-12-11T21:43:23.332Z,100.00
2022-12-11T21:46:05.715Z,100.00
2022-12-11T21:48:32.423Z,100.00
2022-12-11T21:51:06.140Z,100.00
2022-12-11T21:53:34.748Z,100.00
2022-12-11T21:56:05.163Z,100.00
2022-12-11T21:58:31.720Z,100.00
2022-12-11T22:00:58.502Z,100.00
2022-12-11T22:03:25.239Z,100.00
2022-12-11T22:05:51.829Z,100.00
2022-12-11T22:08:18.518Z,100.00
2022-12-11T22:10:46.464Z,100.00
2022-12-11T22:13:13.192Z,100.00
2022-12-11T22:15:39.885Z,100.00
2022-12-11T22:18:06.629Z,100.00
2022-12-11T22:20:33.205Z,100.00
2022-12-11T22:22:59.898Z,100.00
2022-12-11T22:25:26.511Z,100.00
2022-12-11T22:27:54.377Z,100.00
2022-12-11T22:30:20.929Z,100.00
2022-12-11T22:32:47.469Z,100.00
2022-12-11T22:35:14.471Z,100.00
2022-12-11T22:37:41.256Z,100.00
2022-12-11T22:40:08.440Z,100.00
2022-12-11T22:42:34.976Z,100.00
2022-12-11T22:45:03.030Z,100.00
2022-12-11T22:47:29.586Z,100.00
2022-12-11T22:49:56.391Z,100.00
2022-12-11T22:52:22.934Z,100.00
2022-12-11T22:54:49.457Z,100.00
2022-12-11T22:57:16.031Z,100.00
2022-12-11T22:59:42.681Z,100.00
2022-12-11T23:02:10.641Z,100.00
2022-12-11T23:04:37.387Z,100.00
2022-12-11T23:07:04.356Z,100.00
2022-12-11T23:09:31.169Z,100.00
2022-12-11T23:11:57.777Z,100.00
2022-12-11T23:14:24.851Z,100.00
2022-12-11T23:16:51.442Z,100.00
2022-12-11T23:19:25.112Z,100.00
2022-12-11T23:21:52.417Z,100.00
2022-12-11T23:24:19.075Z,100.00
2022-12-11T23:26:45.671Z,100.00
2022-12-11T23:29:12.354Z,100.00
2022-12-11T23:31:38.853Z,100.00
2022-12-11T23:34:05.557Z,100.00
2022-12-11T23:36:33.512Z,100.00
2022-12-11T23:39:00.111Z,100.00
2022-12-11T23:41:26.754Z,100.00
2022-12-11T23:43:53.326Z,100.00
2022-12-11T23:46:21.770Z,100.00
2022-12-11T23:48:48.561Z,100.00
2022-12-11T23:51:18.632Z,100.00
2022-12-11T23:53:46.898Z,100.00
2022-12-11T23:56:16.487Z,100.00
2022-12-11T23:58:43.051Z,100.00
